Terminal Aerodrome Forecast
Issued by NWS Duluth, MN

Home | Current Version | Previous Version | Text Only | Print | Product List | Glossary On
Versions: 1 2 3 4 5 6 7 8 9 10 11 12 13 14 15
933
FTUS43 KDLH 281133
TAFINL
TAF
KINL 281133Z 2812/2912 06005KT P6SM BKN250
     FM281400 06010KT P6SM BKN200
     FM290100 05004KT P6SM BKN200=

USA.gov is the U.S. government's official web portal to all federal, state and local government web resources and services.